createdAt,value
2023-02-11T00:01:41.291Z,101644.52
2023-02-11T00:04:09.328Z,101646.54
2023-02-11T00:06:37.370Z,101643.36
2023-02-11T00:09:06.137Z,101636.61
2023-02-11T00:11:34.835Z,101632.06
2023-02-11T00:14:07.803Z,101631.45
2023-02-11T00:16:36.004Z,101631.06
2023-02-11T00:19:06.327Z,101631.06
2023-02-11T00:21:34.464Z,101623.14
2023-02-11T00:24:02.518Z,101612.67
2023-02-11T00:26:35.383Z,101610.16
2023-02-11T00:29:04.751Z,101612.98
2023-02-11T00:31:33.857Z,101614.63
2023-02-11T00:34:02.285Z,101603.50
2023-02-11T00:36:31.317Z,101597.21
2023-02-11T00:39:00.056Z,101594.14
2023-02-11T00:41:29.263Z,101584.65
2023-02-11T00:43:57.226Z,101581.78
2023-02-11T00:46:25.310Z,101577.35
2023-02-11T00:48:57.739Z,101577.60
2023-02-11T00:51:27.803Z,101559.83
2023-02-11T00:53:55.818Z,101553.66
2023-02-11T00:56:24.656Z,101545.08
2023-02-11T00:58:53.526Z,101537.42
2023-02-11T01:01:21.634Z,101527.05
2023-02-11T01:03:50.588Z,101522.20
2023-02-11T01:06:20.252Z,101515.99
2023-02-11T01:08:48.148Z,101509.35
2023-02-11T01:11:19.460Z,101505.92
2023-02-11T01:13:49.540Z,101494.48
2023-02-11T01:16:18.932Z,101491.80
2023-02-11T01:18:47.127Z,101482.65
2023-02-11T01:21:15.173Z,101479.95
2023-02-11T01:23:44.410Z,101468.92
2023-02-11T01:26:13.824Z,101474.50
2023-02-11T01:28:42.064Z,101462.56
2023-02-11T01:31:10.163Z,101450.42
2023-02-11T01:33:39.016Z,101439.73
2023-02-11T01:36:08.290Z,101432.21
2023-02-11T01:38:36.874Z,101426.77
2023-02-11T01:41:09.974Z,101418.96
2023-02-11T01:43:43.979Z,101415.89
2023-02-11T01:46:38.544Z,101408.02
2023-02-11T01:49:11.318Z,101414.83
2023-02-11T01:51:44.128Z,101426.77
2023-02-11T01:54:35.506Z,101421.16
2023-02-11T01:57:27.892Z,101432.55
2023-02-11T02:00:11.108Z,101439.61
2023-02-11T02:03:05.153Z,101431.21
2023-02-11T02:05:36.271Z,101418.00
2023-02-11T02:08:29.788Z,101409.29
2023-02-11T02:11:00.908Z,101389.34
2023-02-11T02:13:31.553Z,101378.75
2023-02-11T02:16:02.277Z,101378.55
2023-02-11T02:19:11.067Z,101368.92
2023-02-11T02:22:10.638Z,101354.73
2023-02-11T02:24:47.137Z,101349.20
2023-02-11T02:27:45.938Z,101342.30
2023-02-11T02:30:35.498Z,101327.10
2023-02-11T02:36:28.661Z,101324.25
2023-02-11T02:39:07.721Z,101323.05
2023-02-11T02:41:37.837Z,101317.40
2023-02-11T02:44:08.439Z,101320.70
2023-02-11T02:46:37.170Z,101319.91
2023-02-11T02:49:12.334Z,101315.88
2023-02-11T02:51:49.451Z,101314.41
2023-02-11T02:54:46.912Z,101319.63
2023-02-11T02:57:20.948Z,101318.88
2023-02-11T02:59:49.109Z,101299.96
2023-02-11T03:02:43.270Z,101294.67
2023-02-11T03:05:18.830Z,101298.91
2023-02-11T03:07:55.721Z,101310.88
2023-02-11T03:10:34.377Z,101304.00
2023-02-11T03:13:04.962Z,101296.59
2023-02-11T03:15:39.266Z,101294.73
2023-02-11T03:18:11.648Z,101291.04
2023-02-11T03:20:43.951Z,101295.16
2023-02-11T03:23:13.884Z,101278.67
2023-02-11T03:26:05.565Z,101281.34
2023-02-11T03:28:42.617Z,101270.52
2023-02-11T03:31:37.340Z,101267.89
2023-02-11T03:34:18.419Z,101257.36
2023-02-11T03:36:54.020Z,101262.88
2023-02-11T03:39:29.817Z,101255.40
2023-02-11T03:42:00.427Z,101248.81
2023-02-11T03:44:34.325Z,101231.23
2023-02-11T03:47:05.795Z,101230.79
2023-02-11T03:49:35.026Z,101232.02
2023-02-11T03:52:05.763Z,101228.41
2023-02-11T03:54:35.415Z,101226.20
2023-02-11T03:57:03.497Z,101223.26
2023-02-11T03:59:31.595Z,101220.11
2023-02-11T04:02:50.929Z,101219.58
2023-02-11T04:05:19.181Z,101218.84
2023-02-11T04:07:48.500Z,101209.90
2023-02-11T04:10:16.599Z,101198.90
2023-02-11T04:12:44.595Z,101189.96
2023-02-11T04:15:12.822Z,101184.44
2023-02-11T04:17:41.984Z,101177.29
2023-02-11T04:20:10.918Z,101172.71
2023-02-11T04:22:39.007Z,101167.08
2023-02-11T04:25:08.087Z,101164.80
2023-02-11T04:27:37.144Z,101158.14
2023-02-11T04:34:39.458Z,101152.58
2023-02-11T04:37:07.467Z,101146.44
2023-02-11T04:39:35.642Z,101144.77
2023-02-11T04:42:03.674Z,101145.84
2023-02-11T04:44:31.765Z,101141.08
2023-02-11T04:46:59.715Z,101131.39
2023-02-11T04:49:27.639Z,101117.31
2023-02-11T04:51:55.731Z,101121.00
2023-02-11T04:54:23.661Z,101111.13
2023-02-11T04:56:51.592Z,101097.92
2023-02-11T04:59:19.635Z,101095.23
2023-02-11T05:01:47.582Z,101085.77
2023-02-11T05:04:16.440Z,101079.66
2023-02-11T05:06:44.328Z,101082.16
2023-02-11T05:09:13.802Z,101076.76
2023-02-11T05:11:42.174Z,101068.02
2023-02-11T05:14:10.102Z,101067.27
2023-02-11T05:16:38.342Z,101062.60
2023-02-11T05:19:06.271Z,101061.71
2023-02-11T05:21:34.322Z,101057.00
2023-02-11T05:24:02.399Z,101059.48
2023-02-11T05:26:30.278Z,101057.36
2023-02-11T05:28:58.111Z,101056.43
2023-02-11T05:31:26.065Z,101050.42
2023-02-11T05:33:54.041Z,101042.39
2023-02-11T05:36:22.167Z,101040.33
2023-02-11T05:38:50.970Z,101038.59
2023-02-11T05:41:19.454Z,101046.53
2023-02-11T05:43:54.074Z,101055.30
2023-02-11T05:46:22.074Z,101050.56
2023-02-11T05:48:50.121Z,101045.09
2023-02-11T05:51:18.023Z,101037.36
2023-02-11T05:53:46.082Z,101034.67
2023-02-11T05:56:14.711Z,101032.27
2023-02-11T05:58:42.968Z,101030.46
2023-02-11T06:01:10.843Z,101024.66
2023-02-11T06:03:39.025Z,101018.77
2023-02-11T06:06:11.718Z,101019.29
2023-02-11T06:08:40.214Z,101015.58
2023-02-11T06:11:08.214Z,101018.41
2023-02-11T06:13:36.443Z,101019.92
2023-02-11T06:16:04.730Z,101013.07
2023-02-11T06:18:33.679Z,101012.73
2023-02-11T06:21:02.008Z,101010.52
2023-02-11T06:23:30.582Z,101012.73
2023-02-11T06:26:09.069Z,101009.09
2023-02-11T06:28:39.321Z,100990.39
2023-02-11T06:31:09.731Z,100994.20
2023-02-11T06:33:38.261Z,100991.05
2023-02-11T06:36:18.457Z,100990.25
2023-02-11T06:38:47.162Z,100983.04
2023-02-11T06:41:18.558Z,100977.84
2023-02-11T06:43:46.995Z,100985.84
2023-02-11T06:46:15.576Z,100979.67
2023-02-11T06:48:44.980Z,100966.91
2023-02-11T06:51:14.742Z,100968.94
2023-02-11T06:53:45.664Z,100966.14
2023-02-11T06:56:20.015Z,100963.49
2023-02-11T06:58:48.675Z,100971.98
2023-02-11T07:01:17.106Z,100970.23
2023-02-11T07:03:47.083Z,100962.32
2023-02-11T07:06:18.935Z,100954.45
2023-02-11T07:08:48.367Z,100955.83
2023-02-11T07:11:21.384Z,100944.44
2023-02-11T07:13:50.678Z,100943.61
2023-02-11T07:16:19.741Z,100951.00
2023-02-11T07:18:48.527Z,100948.98
2023-02-11T07:21:20.045Z,100931.63
2023-02-11T07:23:48.787Z,100933.86
2023-02-11T07:26:19.815Z,100931.29
2023-02-11T07:28:47.811Z,100946.47
2023-02-11T07:31:19.433Z,100952.76
2023-02-11T07:33:47.484Z,100956.52
2023-02-11T07:36:17.090Z,100955.52
2023-02-11T07:38:46.157Z,100961.45
2023-02-11T07:41:17.233Z,100954.79
2023-02-11T07:43:45.621Z,100948.67
2023-02-11T07:46:17.021Z,100945.21
2023-02-11T07:48:45.064Z,100943.44
2023-02-11T07:51:18.580Z,100939.41
2023-02-11T07:53:47.189Z,100942.34
2023-02-11T07:56:17.385Z,100936.46
2023-02-11T07:58:45.711Z,100934.07
2023-02-11T08:01:17.463Z,100935.86
2023-02-11T08:03:45.869Z,100942.40
2023-02-11T08:06:17.243Z,100941.76
2023-02-11T08:08:45.157Z,100945.06
2023-02-11T08:11:17.451Z,100940.23
2023-02-11T08:13:45.514Z,100933.17
2023-02-11T08:16:35.118Z,100927.07
2023-02-11T08:19:06.706Z,100925.94
2023-02-11T08:21:34.690Z,100928.09
2023-02-11T08:24:03.534Z,100924.83
2023-02-11T08:26:34.769Z,100924.55
2023-02-11T08:29:08.340Z,100917.11
2023-02-11T08:31:40.678Z,100919.07
2023-02-11T08:34:11.511Z,100917.91
2023-02-11T08:36:41.087Z,100914.63
2023-02-11T08:39:21.406Z,100919.15
2023-02-11T08:41:56.570Z,100920.10
2023-02-11T08:44:24.877Z,100913.61
2023-02-11T08:46:53.535Z,100911.94
2023-02-11T08:49:22.448Z,100907.38
2023-02-11T08:51:51.667Z,100900.01
2023-02-11T08:54:20.697Z,100889.05
2023-02-11T08:56:51.671Z,100882.58
2023-02-11T08:59:19.767Z,100865.59
2023-02-11T09:01:47.919Z,100859.34
2023-02-11T09:04:16.262Z,100852.02
2023-02-11T09:06:44.462Z,100851.45
2023-02-11T09:09:14.218Z,100851.88
2023-02-11T09:11:44.216Z,100836.73
2023-02-11T09:14:20.929Z,100829.86
2023-02-11T09:16:50.097Z,100817.61
2023-02-11T09:19:18.834Z,100814.50
2023-02-11T09:21:48.021Z,100800.42
2023-02-11T09:24:16.435Z,100790.63
2023-02-11T09:26:44.527Z,100786.89
2023-02-11T09:29:12.596Z,100790.31
2023-02-11T09:31:41.078Z,100807.65
2023-02-11T09:34:11.197Z,100805.43
2023-02-11T09:36:41.085Z,100811.96
2023-02-11T09:39:17.139Z,100817.89
2023-02-11T09:42:06.871Z,100813.34
2023-02-11T09:44:36.681Z,100826.77
2023-02-11T09:47:15.712Z,100834.99
2023-02-11T09:49:47.047Z,100835.58
2023-02-11T09:52:45.176Z,100840.05
2023-02-11T09:55:30.423Z,100847.93
2023-02-11T09:57:58.990Z,100853.75
2023-02-11T10:00:27.125Z,100856.48
2023-02-11T10:03:02.257Z,100835.02
2023-02-11T10:05:43.286Z,100829.42
2023-02-11T10:08:35.161Z,100816.67
2023-02-11T10:11:22.624Z,100805.11
2023-02-11T10:14:35.732Z,100805.58
2023-02-11T10:17:30.499Z,100801.36
2023-02-11T10:20:20.882Z,100796.95
2023-02-11T10:22:53.494Z,100807.02
2023-02-11T10:25:38.585Z,100816.39
2023-02-11T10:28:19.349Z,100804.80
2023-02-11T10:31:00.937Z,100805.97
2023-02-11T10:33:53.857Z,100799.57
2023-02-11T10:36:27.283Z,100796.04
2023-02-11T10:38:59.738Z,100786.24
2023-02-11T10:41:36.469Z,100775.31
2023-02-11T10:44:07.018Z,100765.25
2023-02-11T10:46:40.311Z,100761.76
2023-02-11T10:49:08.453Z,100753.00
2023-02-11T10:51:37.897Z,100734.69
2023-02-11T10:54:13.320Z,100735.75
2023-02-11T10:56:46.533Z,100734.63
2023-02-11T10:59:31.479Z,100721.60
2023-02-11T11:04:40.648Z,100695.79
2023-02-11T11:07:15.167Z,100708.03
2023-02-11T11:09:48.563Z,100709.82
2023-02-11T11:12:28.829Z,100710.37
2023-02-11T11:15:22.066Z,100713.07
2023-02-11T11:17:51.480Z,100694.43
2023-02-11T11:20:33.596Z,100695.53
2023-02-11T11:23:09.514Z,100701.08
2023-02-11T11:25:41.562Z,100714.36
2023-02-11T11:28:22.234Z,100727.50
2023-02-11T11:30:53.065Z,100717.35
2023-02-11T11:33:26.598Z,100734.97
2023-02-11T11:35:59.082Z,100732.20
2023-02-11T11:38:31.969Z,100729.46
2023-02-11T11:41:27.612Z,100742.37
2023-02-11T11:44:23.583Z,100736.14
2023-02-11T11:47:15.985Z,100740.54
2023-02-11T11:50:11.118Z,100730.56
2023-02-11T11:52:56.872Z,100728.49
2023-02-11T11:55:35.580Z,100734.17
2023-02-11T11:58:07.031Z,100724.77
2023-02-11T12:00:43.901Z,100722.39
2023-02-11T12:03:38.361Z,100722.03
2023-02-11T12:06:11.304Z,100709.45
2023-02-11T12:09:09.685Z,100707.89
2023-02-11T12:11:49.053Z,100704.94
2023-02-11T12:14:26.256Z,100702.95
2023-02-11T12:17:14.763Z,100708.16
2023-02-11T12:19:56.513Z,100701.57
2023-02-11T12:22:32.444Z,100689.82
2023-02-11T12:25:16.587Z,100695.32
2023-02-11T12:27:56.528Z,100700.15
2023-02-11T12:30:33.653Z,100695.48
2023-02-11T12:33:22.319Z,100694.19
2023-02-11T12:36:08.015Z,100687.63
2023-02-11T12:38:46.580Z,100693.21
2023-02-11T12:41:50.665Z,100697.36
2023-02-11T12:44:52.838Z,100699.27
2023-02-11T12:47:28.873Z,100694.42
2023-02-11T12:50:19.914Z,100692.24
2023-02-11T12:53:09.913Z,100693.31
2023-02-11T12:55:43.284Z,100700.52
2023-02-11T12:58:17.203Z,100695.69
2023-02-11T13:00:57.210Z,100691.14
2023-02-11T13:03:34.431Z,100690.77
2023-02-11T13:06:08.105Z,100679.59
2023-02-11T13:08:42.579Z,100667.85
2023-02-11T13:11:16.219Z,100685.55
2023-02-11T13:14:04.553Z,100684.01
2023-02-11T13:16:40.536Z,100691.77
2023-02-11T13:19:14.501Z,100683.42
2023-02-11T13:22:02.731Z,100681.39
2023-02-11T13:24:33.455Z,100681.72
2023-02-11T13:27:11.938Z,100684.14
2023-02-11T13:30:14.442Z,100680.87
2023-02-11T13:33:04.282Z,100684.61
2023-02-11T13:36:05.022Z,100683.37
2023-02-11T13:38:33.592Z,100679.48
2023-02-11T13:41:28.074Z,100680.77
2023-02-11T13:44:08.569Z,100680.23
2023-02-11T13:47:06.655Z,100672.70
2023-02-11T13:49:41.949Z,100672.39
2023-02-11T13:52:23.061Z,100677.60
2023-02-11T13:54:53.855Z,100665.33
2023-02-11T13:57:27.037Z,100672.23
2023-02-11T14:00:00.827Z,100669.07
2023-02-11T14:02:50.918Z,100671.77
2023-02-11T14:05:39.663Z,100676.98
2023-02-11T14:08:29.758Z,100668.08
2023-02-11T14:11:13.020Z,100660.15
2023-02-11T14:13:47.333Z,100662.23
2023-02-11T14:16:37.042Z,100667.13
2023-02-11T14:19:08.699Z,100661.15
2023-02-11T14:21:40.622Z,100667.50
2023-02-11T14:24:13.050Z,100668.50
2023-02-11T14:26:41.092Z,100661.13
2023-02-11T14:29:30.250Z,100660.60
2023-02-11T14:32:11.012Z,100670.21
2023-02-11T14:34:39.089Z,100676.73
2023-02-11T14:37:33.901Z,100665.23
2023-02-11T14:40:22.828Z,100678.83
2023-02-11T14:42:54.084Z,100683.36
2023-02-11T14:45:27.673Z,100684.08
2023-02-11T14:48:08.340Z,100686.25
2023-02-11T14:50:39.416Z,100690.66
2023-02-11T14:53:13.375Z,100686.25
2023-02-11T14:55:44.726Z,100687.52
2023-02-11T14:58:16.737Z,100691.96
2023-02-11T15:01:01.414Z,100698.55
2023-02-11T15:03:35.444Z,100697.89
2023-02-11T15:06:08.270Z,100704.65
2023-02-11T15:08:38.459Z,100703.23
2023-02-11T15:11:12.199Z,100701.87
2023-02-11T15:13:48.151Z,100705.23
2023-02-11T15:16:20.776Z,100696.58
2023-02-11T15:18:53.253Z,100708.61
2023-02-11T15:21:29.134Z,100712.56
2023-02-11T15:24:01.629Z,100708.60
2023-02-11T15:26:30.773Z,100722.05
2023-02-11T15:28:59.418Z,100726.11
2023-02-11T15:31:28.608Z,100727.06
2023-02-11T15:34:07.765Z,100728.27
2023-02-11T15:36:36.456Z,100734.65
2023-02-11T15:39:18.931Z,100734.67
2023-02-11T15:41:47.140Z,100734.91
2023-02-11T15:44:33.028Z,100736.67
2023-02-11T15:47:01.053Z,100735.89
2023-02-11T15:49:29.176Z,100727.50
2023-02-11T15:51:58.137Z,100739.53
2023-02-11T15:54:30.072Z,100740.32
2023-02-11T15:57:10.084Z,100747.02
2023-02-11T15:59:41.290Z,100740.58
2023-02-11T16:02:18.606Z,100754.30
2023-02-11T16:05:08.947Z,100752.85
2023-02-11T16:07:50.815Z,100754.05
2023-02-11T16:10:29.341Z,100758.64
2023-02-11T16:13:24.452Z,100748.75
2023-02-11T16:15:58.465Z,100745.21
2023-02-11T16:18:52.061Z,100746.09
2023-02-11T16:21:39.352Z,100750.91
2023-02-11T16:24:08.509Z,100761.25
2023-02-11T16:26:43.034Z,100761.76
2023-02-11T16:29:23.590Z,100768.77
2023-02-11T16:31:53.540Z,100767.63
2023-02-11T16:34:24.394Z,100775.74
2023-02-11T16:36:52.994Z,100780.19
2023-02-11T16:39:22.839Z,100786.62
2023-02-11T16:41:52.403Z,100797.39
2023-02-11T16:44:20.363Z,100794.65
2023-02-11T16:46:48.606Z,100802.64
2023-02-11T16:49:30.428Z,100807.94
2023-02-11T16:52:05.506Z,100812.86
2023-02-11T16:54:34.163Z,100816.27
2023-02-11T16:57:02.834Z,100822.09
2023-02-11T16:59:30.854Z,100816.59
2023-02-11T17:01:58.879Z,100824.14
2023-02-11T17:04:30.461Z,100825.15
2023-02-11T17:06:58.866Z,100828.73
2023-02-11T17:09:30.546Z,100825.91
2023-02-11T17:11:59.312Z,100834.50
2023-02-11T17:14:27.550Z,100832.90
2023-02-11T17:16:56.874Z,100833.40
2023-02-11T17:19:25.103Z,100835.87
2023-02-11T17:21:53.102Z,100841.54
2023-02-11T17:24:22.844Z,100849.90
2023-02-11T17:26:51.088Z,100858.92
2023-02-11T17:29:22.339Z,100862.22
2023-02-11T17:31:52.011Z,100867.67
2023-02-11T17:34:21.920Z,100876.96
2023-02-11T17:36:50.145Z,100881.98
2023-02-11T17:39:19.326Z,100883.73
2023-02-11T17:41:47.399Z,100894.79
2023-02-11T17:44:16.612Z,100895.35
2023-02-11T17:46:44.746Z,100897.97
2023-02-11T17:49:12.868Z,100888.49
2023-02-11T17:51:41.952Z,100899.09
2023-02-11T17:54:16.905Z,100899.96
2023-02-11T17:56:46.496Z,100899.48
2023-02-11T17:59:14.697Z,100905.14
2023-02-11T18:01:43.221Z,100906.17
2023-02-11T18:04:17.198Z,100909.80
2023-02-11T18:06:45.812Z,100907.23
2023-02-11T18:09:14.256Z,100907.21
2023-02-11T18:11:42.987Z,100916.02
2023-02-11T18:14:11.837Z,100909.73
2023-02-11T18:16:43.193Z,100913.73
2023-02-11T18:19:12.742Z,100922.59
2023-02-11T18:21:41.987Z,100924.27
2023-02-11T18:24:10.000Z,100923.23
2023-02-11T18:26:38.189Z,100928.89
2023-02-11T18:29:07.152Z,100930.45
2023-02-11T18:31:35.624Z,100933.70
2023-02-11T18:34:07.507Z,100940.17
2023-02-11T18:36:36.074Z,100941.28
2023-02-11T18:39:05.054Z,100937.02
2023-02-11T18:41:33.373Z,100944.40
2023-02-11T18:44:03.322Z,100946.63
2023-02-11T18:46:31.529Z,100950.53
2023-02-11T18:48:59.592Z,100955.83
2023-02-11T18:51:28.077Z,100955.54
2023-02-11T18:53:57.177Z,100959.16
2023-02-11T18:56:27.960Z,100966.84
2023-02-11T18:58:58.132Z,100971.52
2023-02-11T19:04:38.512Z,100983.35
2023-02-11T19:07:06.552Z,100980.70
2023-02-11T19:09:34.543Z,100983.77
2023-02-11T19:12:02.936Z,100985.26
2023-02-11T19:14:32.334Z,100989.73
2023-02-11T19:17:06.035Z,100992.18
2023-02-11T19:19:35.880Z,100995.48
2023-02-11T19:22:10.227Z,101005.87
2023-02-11T19:24:38.871Z,101010.75
2023-02-11T19:27:07.022Z,101017.38
2023-02-11T19:29:35.351Z,101024.95
2023-02-11T19:32:08.645Z,101024.63
2023-02-11T19:34:41.425Z,101026.56
2023-02-11T19:37:12.788Z,101026.05
2023-02-11T19:39:43.112Z,101030.70
2023-02-11T19:42:12.552Z,101029.17
2023-02-11T19:44:40.698Z,101031.98
2023-02-11T19:47:10.396Z,101036.60
2023-02-11T19:49:38.552Z,101039.09
2023-02-11T19:52:06.854Z,101045.93
2023-02-11T19:54:34.798Z,101050.36
2023-02-11T19:57:02.848Z,101050.20
2023-02-11T19:59:30.930Z,101055.00
2023-02-11T20:01:59.017Z,101067.01
2023-02-11T20:04:27.044Z,101079.26
2023-02-11T20:06:55.057Z,101085.79
2023-02-11T20:09:23.387Z,101095.06
2023-02-11T20:11:51.668Z,101098.78
2023-02-11T20:14:20.085Z,101105.55
2023-02-11T20:16:49.975Z,101105.05
2023-02-11T20:19:21.898Z,101109.63
2023-02-11T20:21:53.401Z,101105.76
2023-02-11T20:24:22.834Z,101109.32
2023-02-11T20:26:55.886Z,101111.05
2023-02-11T20:29:25.875Z,101115.71
2023-02-11T20:31:54.996Z,101124.80
2023-02-11T20:34:24.999Z,101128.79
2023-02-11T20:36:53.539Z,101137.72
2023-02-11T20:39:23.538Z,101139.81
2023-02-11T20:41:53.982Z,101147.56
2023-02-11T20:44:22.885Z,101153.08
2023-02-11T20:46:51.871Z,101154.64
2023-02-11T20:49:23.380Z,101158.84
2023-02-11T20:51:54.044Z,101162.95
2023-02-11T20:54:24.458Z,101171.06
2023-02-11T20:56:55.537Z,101177.12
2023-02-11T20:59:24.817Z,101178.64
2023-02-11T21:01:56.279Z,101182.84
2023-02-11T21:04:29.732Z,101189.36
2023-02-11T21:07:00.234Z,101186.41
2023-02-11T21:09:31.646Z,101194.23
2023-02-11T21:12:00.376Z,101198.60
2023-02-11T21:14:28.817Z,101204.77
2023-02-11T21:16:57.707Z,101201.23
2023-02-11T21:19:26.036Z,101209.17
2023-02-11T21:21:55.294Z,101213.60
2023-02-11T21:24:23.865Z,101214.42
2023-02-11T21:26:52.050Z,101219.55
2023-02-11T21:29:20.101Z,101222.52
2023-02-11T21:31:48.804Z,101231.39
2023-02-11T21:34:18.098Z,101231.64
2023-02-11T21:36:46.143Z,101231.61
2023-02-11T21:39:14.432Z,101231.20
2023-02-11T21:41:42.835Z,101235.09
2023-02-11T21:44:11.009Z,101237.33
2023-02-11T21:46:39.230Z,101245.56
2023-02-11T21:49:07.335Z,101250.40
2023-02-11T21:51:36.453Z,101255.51
2023-02-11T21:54:04.747Z,101259.08
2023-02-11T21:56:34.383Z,101269.04
2023-02-11T21:59:03.014Z,101273.55
2023-02-11T22:01:33.687Z,101287.13
2023-02-11T22:04:01.962Z,101289.28
2023-02-11T22:06:33.070Z,101292.02
2023-02-11T22:09:08.744Z,101293.31
2023-02-11T22:11:37.211Z,101303.77
2023-02-11T22:14:06.000Z,101314.38
2023-02-11T22:16:34.028Z,101324.60
2023-02-11T22:19:07.388Z,101335.73
2023-02-11T22:21:35.637Z,101335.56
2023-02-11T22:24:03.892Z,101345.65
2023-02-11T22:26:32.014Z,101351.39
2023-02-11T22:29:00.783Z,101360.49
2023-02-11T22:31:32.014Z,101359.79
2023-02-11T22:34:00.881Z,101358.30
2023-02-11T22:36:32.516Z,101369.52
2023-02-11T22:39:11.631Z,101382.06
2023-02-11T22:41:44.946Z,101394.13
2023-02-11T22:44:16.510Z,101402.05
2023-02-11T22:46:44.459Z,101405.09
2023-02-11T22:49:15.082Z,101412.00
2023-02-11T22:51:43.564Z,101424.34
2023-02-11T22:54:19.619Z,101429.10
2023-02-11T22:56:51.111Z,101428.36
2023-02-11T22:59:19.572Z,101440.92
2023-02-11T23:01:48.024Z,101443.36
2023-02-11T23:04:19.267Z,101445.40
2023-02-11T23:06:50.452Z,101442.67
2023-02-11T23:09:18.496Z,101450.52
2023-02-11T23:11:48.560Z,101455.16
2023-02-11T23:14:22.595Z,101457.16
2023-02-11T23:16:51.564Z,101460.23
2023-02-11T23:19:20.705Z,101463.96
2023-02-11T23:21:52.677Z,101460.41
2023-02-11T23:24:20.834Z,101470.02
2023-02-11T23:26:48.947Z,101470.00
2023-02-11T23:29:17.084Z,101473.98
2023-02-11T23:31:46.584Z,101479.14
2023-02-11T23:34:17.336Z,101478.02
2023-02-11T23:36:45.413Z,101487.52
2023-02-11T23:39:15.394Z,101501.23
2023-02-11T23:41:43.609Z,101498.97
2023-02-11T23:44:12.250Z,101504.23
2023-02-11T23:46:40.216Z,101509.01
2023-02-11T23:49:08.264Z,101516.72
2023-02-11T23:51:36.198Z,101523.98
2023-02-11T23:54:04.346Z,101534.06
2023-02-11T23:56:32.371Z,101533.79
2023-02-11T23:59:00.276Z,101545.39
